Time;durP1;ratioP1;P1;durP2;ratioP2;P2;SDS_P1;SDS_P2;PMS_P1;PMS_P2;Temp;Humidity;BMP_temperature;BMP_pressure;BME280_temperature;BME280_humidity;BME280_pressure;Samples;Min_cycle;Max_cycle;Signal;HPM_P1;HPM_P2
2021/12/20 00:01:19;;;;;;;26.35;20.70;;;3.80;99.90;;;;;;4937359;29;20054;-76
2021/12/20 00:03:46;;;;;;;26.88;23.55;;;3.80;99.90;;;;;;4937841;29;20040;-76
2021/12/20 00:06:12;;;;;;;25.63;22.73;;;3.80;99.90;;;;;;4940387;29;20035;-77
2021/12/20 00:08:38;;;;;;;30.63;23.30;;;3.80;99.90;;;;;;4952939;29;20028;-77
2021/12/20 00:11:04;;;;;;;28.95;25.42;;;3.80;99.90;;;;;;4937689;29;20377;-81
2021/12/20 00:13:31;;;;;;;31.00;23.70;;;3.80;99.90;;;;;;4938060;29;20461;-76
2021/12/20 00:15:57;;;;;;;29.50;26.05;;;3.80;99.90;;;;;;4950680;29;20032;-76
2021/12/20 00:18:23;;;;;;;32.45;26.17;;;3.70;99.90;;;;;;4937596;29;20036;-76
2021/12/20 00:20:49;;;;;;;31.70;26.67;;;3.70;99.90;;;;;;4937893;29;20027;-77
2021/12/20 00:23:16;;;;;;;29.33;26.27;;;3.70;99.90;;;;;;4937502;29;20035;-76
2021/12/20 00:25:48;;;;;;;27.48;24.33;;;3.70;99.90;;;;;;4936735;29;20043;-77
2021/12/20 00:28:17;;;;;;;34.40;25.70;;;3.70;99.90;;;;;;4944892;29;20043;-77
2021/12/20 00:30:43;;;;;;;34.85;27.70;;;3.80;99.90;;;;;;4934875;29;20048;-76
2021/12/20 00:33:09;;;;;;;29.95;24.88;;;3.70;99.90;;;;;;4936911;29;20111;-77
2021/12/20 00:35:36;;;;;;;34.47;27.95;;;3.70;99.90;;;;;;4937690;29;20035;-77
2021/12/20 00:40:48;;;;;;;29.88;26.73;;;3.70;99.90;;;;;;4952997;29;20096;-77
2021/12/20 00:43:15;;;;;;;29.92;26.73;;;3.70;99.90;;;;;;4954598;29;20035;-77
2021/12/20 00:45:42;;;;;;;35.75;28.08;;;3.70;99.90;;;;;;4921262;29;20048;-76
2021/12/20 00:48:08;;;;;;;32.72;28.40;;;3.60;99.90;;;;;;4941005;29;20039;-76
2021/12/20 00:50:35;;;;;;;29.52;26.45;;;3.60;99.90;;;;;;4941593;29;20048;-76
2021/12/20 00:53:02;;;;;;;35.65;28.73;;;3.70;99.90;;;;;;4938268;29;20397;-76
2021/12/20 00:55:29;;;;;;;33.55;27.77;;;3.70;99.90;;;;;;4936690;29;20042;-77
2021/12/20 00:57:57;;;;;;;30.70;27.50;;;3.70;99.90;;;;;;4937103;29;20034;-77
2021/12/20 01:00:30;;;;;;;30.55;27.38;;;3.70;99.90;;;;;;4934188;29;20050;-77
2021/12/20 01:02:57;;;;;;;35.28;28.02;;;3.60;99.90;;;;;;4937303;29;20032;-77
2021/12/20 01:05:25;;;;;;;32.75;29.02;;;3.60;99.90;;;;;;4930903;29;20059;-76
2021/12/20 01:07:54;;;;;;;35.50;28.27;;;3.60;99.90;;;;;;4945735;29;20035;-77
2021/12/20 01:10:21;;;;;;;32.90;29.05;;;3.60;99.90;;;;;;4945596;29;20027;-76
2021/12/20 01:12:50;;;;;;;32.25;28.60;;;3.60;99.90;;;;;;4936872;29;20046;-77
2021/12/20 01:15:22;;;;;;;37.95;28.73;;;3.60;99.90;;;;;;4936672;29;20042;-77
2021/12/20 01:17:49;;;;;;;33.70;30.13;;;3.60;99.90;;;;;;4937634;29;20040;-77
2021/12/20 01:20:16;;;;;;;42.10;30.95;;;3.60;99.90;;;;;;4946888;29;20473;-77
2021/12/20 01:22:44;;;;;;;37.10;30.48;;;3.50;99.90;;;;;;4947240;29;20042;-77
2021/12/20 01:25:11;;;;;;;34.78;28.98;;;3.50;99.90;;;;;;4936852;29;20039;-76
2021/12/20 01:27:38;;;;;;;37.25;30.25;;;3.50;99.90;;;;;;4947503;29;20039;-76
2021/12/20 01:30:06;;;;;;;38.42;31.00;;;3.50;99.90;;;;;;4937001;29;20035;-83
2021/12/20 01:32:33;;;;;;;34.75;30.40;;;3.50;99.90;;;;;;4936153;29;20040;-77
2021/12/20 01:34:59;;;;;;;36.17;30.75;;;3.50;99.90;;;;;;4945139;29;20050;-77
2021/12/20 01:37:25;;;;;;;39.40;29.77;;;3.50;99.90;;;;;;4932168;29;20125;-77
2021/12/20 01:39:53;;;;;;;32.38;29.02;;;3.50;99.90;;;;;;4936561;29;20034;-77
2021/12/20 01:42:20;;;;;;;33.92;29.00;;;3.50;99.90;;;;;;4936395;29;20055;-77
2021/12/20 01:44:49;;;;;;;36.40;29.92;;;3.50;99.90;;;;;;4937123;29;20040;-78
2021/12/20 01:47:16;;;;;;;41.63;29.08;;;3.50;99.90;;;;;;4935532;29;20053;-77
2021/12/20 01:50:09;;;;;;;36.55;28.85;;;3.50;99.90;;;;;;4951657;29;20051;-76
2021/12/20 01:52:39;;;;;;;39.42;29.15;;;3.50;99.90;;;;;;4936101;29;20060;-77
2021/12/20 01:55:07;;;;;;;33.05;29.77;;;3.50;99.90;;;;;;4929280;29;20046;-84
2021/12/20 01:57:34;;;;;;;32.75;29.23;;;3.50;99.90;;;;;;4920721;29;20488;-77
2021/12/20 02:00:04;;;;;;;34.88;29.30;;;3.50;99.90;;;;;;4923040;29;20040;-76
2021/12/20 02:02:30;;;;;;;31.95;28.50;;;3.50;99.90;;;;;;4951605;29;20027;-77
2021/12/20 02:05:05;;;;;;;35.55;30.13;;;3.50;99.90;;;;;;4919009;29;20043;-76
2021/12/20 02:07:49;;;;;;;34.60;30.27;;;3.40;99.90;;;;;;4936786;29;20040;-76
2021/12/20 02:10:16;;;;;;;34.92;29.75;;;3.50;99.90;;;;;;4919238;29;20039;-77
2021/12/20 02:12:43;;;;;;;30.10;27.10;;;3.50;99.90;;;;;;4936992;29;20034;-77
2021/12/20 02:15:09;;;;;;;36.60;28.58;;;3.40;99.90;;;;;;4933134;29;20427;-78
2021/12/20 02:17:36;;;;;;;33.00;28.73;;;3.40;99.90;;;;;;4936987;29;20031;-76
2021/12/20 02:20:03;;;;;;;42.80;31.08;;;3.40;99.90;;;;;;4937217;29;20051;-77
2021/12/20 02:22:30;;;;;;;34.00;28.10;;;3.40;99.90;;;;;;4936014;29;20043;-76
2021/12/20 02:24:56;;;;;;;35.72;28.95;;;3.40;99.90;;;;;;4936672;29;20035;-77
2021/12/20 02:27:23;;;;;;;37.60;28.58;;;3.40;99.90;;;;;;4935415;29;20050;-76
2021/12/20 02:30:05;;;;;;;34.75;30.88;;;3.40;99.90;;;;;;4946624;29;20027;-76
2021/12/20 02:38:21;;;;;;;30.48;27.33;;;3.40;99.90;;;;;;4935435;29;20397;-77
2021/12/20 02:40:57;;;;;;;30.67;27.42;;;3.40;99.90;;;;;;4919464;29;20046;-77
2021/12/20 02:43:23;;;;;;;29.75;26.60;;;3.40;99.90;;;;;;4946056;29;20027;-78
2021/12/20 02:45:49;;;;;;;31.65;28.42;;;3.40;99.90;;;;;;4941616;29;20035;-77
2021/12/20 02:48:16;;;;;;;35.10;29.25;;;3.30;99.90;;;;;;4937579;29;20054;-77
2021/12/20 02:50:42;;;;;;;34.90;29.13;;;3.30;99.90;;;;;;4935470;29;20044;-77
2021/12/20 02:53:08;;;;;;;33.78;27.92;;;3.40;99.90;;;;;;4921543;29;20052;-82
2021/12/20 02:55:34;;;;;;;36.70;29.08;;;3.40;99.90;;;;;;4936131;29;20032;-78
2021/12/20 02:58:00;;;;;;;33.45;29.15;;;3.30;99.90;;;;;;4955826;29;20032;-76
2021/12/20 03:00:27;;;;;;;42.60;30.05;;;3.30;99.90;;;;;;4950574;29;20047;-77
2021/12/20 03:02:53;;;;;;;33.38;28.45;;;3.40;99.90;;;;;;4936461;29;20031;-76
2021/12/20 03:05:19;;;;;;;29.55;26.63;;;3.30;99.90;;;;;;4935187;29;20112;-77
2021/12/20 03:07:49;;;;;;;31.05;27.67;;;3.40;99.90;;;;;;4938024;29;20031;-78
2021/12/20 03:10:18;;;;;;;37.47;30.77;;;3.30;99.90;;;;;;4947577;29;20050;-77
2021/12/20 03:12:46;;;;;;;35.95;29.13;;;3.30;99.90;;;;;;4937048;29;20302;-76
2021/12/20 03:15:17;;;;;;;33.08;28.67;;;3.40;99.90;;;;;;4934923;29;20140;-77
2021/12/20 03:17:44;;;;;;;31.58;27.42;;;3.40;99.90;;;;;;4934895;29;20031;-76
2021/12/20 03:20:10;;;;;;;34.80;27.55;;;3.30;99.90;;;;;;4935261;29;20389;-82
2021/12/20 03:22:37;;;;;;;42.97;30.48;;;3.40;99.90;;;;;;4946632;29;20046;-76
2021/12/20 03:25:03;;;;;;;30.63;27.40;;;3.40;99.90;;;;;;4943762;29;20039;-77
2021/12/20 03:27:30;;;;;;;31.70;28.35;;;3.30;99.90;;;;;;4953012;29;20120;-76
2021/12/20 03:29:56;;;;;;;31.30;28.15;;;3.40;99.90;;;;;;4953374;29;20028;-77
2021/12/20 03:32:22;;;;;;;38.53;28.50;;;3.40;99.90;;;;;;4951858;29;20044;-77
2021/12/20 03:34:49;;;;;;;37.03;28.88;;;3.40;99.90;;;;;;4945512;29;20462;-80
2021/12/20 03:37:15;;;;;;;30.92;27.52;;;3.40;99.90;;;;;;4916589;29;20051;-76
2021/12/20 03:39:41;;;;;;;34.00;28.13;;;3.40;99.90;;;;;;4934240;29;20051;-77
2021/12/20 03:42:08;;;;;;;36.97;28.63;;;3.30;99.90;;;;;;4934658;29;20031;-79
2021/12/20 03:44:37;;;;;;;33.58;28.63;;;3.40;99.90;;;;;;4934852;29;20385;-76
2021/12/20 03:47:04;;;;;;;34.20;28.38;;;3.40;99.90;;;;;;4934546;29;20067;-76
2021/12/20 03:49:30;;;;;;;36.15;28.45;;;3.30;99.90;;;;;;4933985;29;20039;-77
2021/12/20 03:51:56;;;;;;;29.90;26.73;;;3.30;99.90;;;;;;4935120;29;20389;-77
2021/12/20 03:54:23;;;;;;;33.70;27.55;;;3.40;99.90;;;;;;4934147;29;20043;-76
2021/12/20 03:56:49;;;;;;;35.38;27.48;;;3.40;99.90;;;;;;4934659;29;20063;-76
2021/12/20 03:59:15;;;;;;;33.05;27.85;;;3.40;99.90;;;;;;4933934;29;20062;-76
2021/12/20 04:01:41;;;;;;;32.63;28.92;;;3.40;99.90;;;;;;4938125;29;20094;-77
2021/12/20 04:04:08;;;;;;;33.80;27.40;;;3.40;99.90;;;;;;4938080;29;20040;-81
2021/12/20 04:06:35;;;;;;;33.42;28.77;;;3.40;99.90;;;;;;4937693;29;20060;-76
2021/12/20 04:09:02;;;;;;;32.78;27.35;;;3.30;99.90;;;;;;4937389;29;20043;-76
2021/12/20 04:11:28;;;;;;;31.40;28.05;;;3.30;99.90;;;;;;4937470;29;20604;-77
2021/12/20 04:13:56;;;;;;;34.65;27.67;;;3.30;99.90;;;;;;4937420;29;20028;-77
2021/12/20 04:16:22;;;;;;;31.98;28.33;;;3.30;99.90;;;;;;4931198;29;20051;-76
2021/12/20 04:18:48;;;;;;;33.72;29.33;;;3.30;99.90;;;;;;4937722;29;20040;-76
2021/12/20 04:21:15;;;;;;;33.78;28.75;;;3.40;99.90;;;;;;4936744;29;20487;-77
2021/12/20 04:23:41;;;;;;;37.65;27.50;;;3.40;99.90;;;;;;4937534;29;20042;-76
2021/12/20 04:26:09;;;;;;;30.98;27.75;;;3.40;99.90;;;;;;4937547;29;20046;-76
2021/12/20 04:28:35;;;;;;;32.85;29.30;;;3.40;99.90;;;;;;4920245;29;20035;-77
2021/12/20 04:31:01;;;;;;;47.50;29.08;;;3.40;99.90;;;;;;4937548;29;20032;-76
2021/12/20 04:33:27;;;;;;;31.20;27.88;;;3.30;99.90;;;;;;4936786;29;20036;-77
2021/12/20 04:35:54;;;;;;;32.97;28.23;;;3.30;99.90;;;;;;4937981;29;20062;-77
2021/12/20 04:38:20;;;;;;;39.72;35.50;;;3.30;99.90;;;;;;4936830;29;20032;-77
2021/12/20 04:40:47;;;;;;;50.83;45.15;;;3.30;99.90;;;;;;4937291;29;20039;-78
2021/12/20 04:43:13;;;;;;;33.08;27.88;;;3.30;99.90;;;;;;4936680;29;20051;-78
2021/12/20 04:45:40;;;;;;;35.20;27.48;;;3.30;99.90;;;;;;4937167;29;20370;-76
2021/12/20 04:48:06;;;;;;;32.30;28.52;;;3.40;99.90;;;;;;4953473;29;20468;-77
2021/12/20 04:50:32;;;;;;;30.85;27.65;;;3.30;99.90;;;;;;4936531;29;20052;-77
2021/12/20 04:52:59;;;;;;;122.28;103.18;;;3.30;99.90;;;;;;4936848;29;20469;-79
2021/12/20 04:55:27;;;;;;;58.63;46.53;;;3.30;99.90;;;;;;4936379;29;20039;-77
2021/12/20 04:57:53;;;;;;;33.85;27.17;;;3.30;99.90;;;;;;4930058;29;20027;-77
2021/12/20 05:00:29;;;;;;;39.38;28.90;;;3.30;99.90;;;;;;4955667;29;20039;-76
2021/12/20 05:02:56;;;;;;;35.35;28.05;;;3.30;99.90;;;;;;4954276;29;20461;-76
2021/12/20 05:05:23;;;;;;;36.10;31.13;;;3.30;99.90;;;;;;4919070;29;20050;-77
2021/12/20 05:07:50;;;;;;;32.17;28.67;;;3.30;99.90;;;;;;4937261;29;20042;-77
2021/12/20 05:10:31;;;;;;;33.40;28.92;;;3.30;99.90;;;;;;4936710;29;20032;-77
2021/12/20 05:13:00;;;;;;;29.50;26.40;;;3.30;99.90;;;;;;4936743;29;20039;-77
2021/12/20 05:15:27;;;;;;;34.95;27.85;;;3.30;99.90;;;;;;4936002;29;20039;-77
2021/12/20 05:17:53;;;;;;;33.65;27.60;;;3.30;99.90;;;;;;4936885;29;20028;-76
2021/12/20 05:20:20;;;;;;;44.75;36.05;;;3.30;99.90;;;;;;4935657;29;20043;-76
2021/12/20 05:22:46;;;;;;;35.17;27.10;;;3.30;99.90;;;;;;4939792;29;20039;-76
2021/12/20 05:25:12;;;;;;;35.67;28.05;;;3.30;99.90;;;;;;4953788;29;20456;-81
2021/12/20 05:27:39;;;;;;;37.05;30.40;;;3.30;99.90;;;;;;4954934;29;20054;-76
2021/12/20 05:30:08;;;;;;;33.60;27.85;;;3.20;99.90;;;;;;4941658;29;20052;-76
2021/12/20 05:32:35;;;;;;;29.35;25.92;;;3.30;99.90;;;;;;4936087;29;20031;-77
2021/12/20 05:35:02;;;;;;;43.05;29.17;;;3.20;99.90;;;;;;4935875;29;20047;-76
2021/12/20 05:37:29;;;;;;;38.67;29.25;;;3.30;99.90;;;;;;4918203;29;20063;-77
2021/12/20 05:39:55;;;;;;;37.67;28.27;;;3.20;99.90;;;;;;4918969;29;20035;-77
2021/12/20 05:42:21;;;;;;;32.55;26.50;;;3.20;99.90;;;;;;4935190;29;20034;-77
2021/12/20 05:44:50;;;;;;;34.83;29.05;;;3.20;99.90;;;;;;4950425;29;20035;-77
2021/12/20 05:47:18;;;;;;;35.15;28.30;;;3.20;99.90;;;;;;4935467;29;20046;-76
2021/12/20 05:49:44;;;;;;;37.35;31.17;;;3.20;99.90;;;;;;4937914;29;20047;-76
2021/12/20 05:52:10;;;;;;;35.58;28.58;;;3.20;99.90;;;;;;4951329;29;20040;-79
2021/12/20 05:54:37;;;;;;;40.53;36.30;;;3.20;99.90;;;;;;4928290;29;20052;-76
2021/12/20 05:57:03;;;;;;;31.90;28.38;;;3.20;99.90;;;;;;4954963;29;20031;-76
2021/12/20 05:59:29;;;;;;;34.65;28.15;;;3.20;99.90;;;;;;4933766;29;20039;-77
2021/12/20 06:01:55;;;;;;;30.27;26.02;;;3.20;99.90;;;;;;4949589;29;20524;-76
2021/12/20 06:04:22;;;;;;;50.00;32.50;;;3.20;99.90;;;;;;4959643;29;20043;-76
2021/12/20 06:06:48;;;;;;;44.35;34.72;;;3.20;99.90;;;;;;4954904;29;20088;-75
2021/12/20 06:09:14;;;;;;;34.33;27.40;;;3.20;99.90;;;;;;4940447;29;20036;-82
2021/12/20 06:11:40;;;;;;;31.90;28.60;;;3.20;99.90;;;;;;4918665;29;20040;-76
2021/12/20 06:14:07;;;;;;;37.90;28.25;;;3.20;99.90;;;;;;4930571;29;20028;-76
2021/12/20 06:16:33;;;;;;;32.78;26.38;;;3.20;99.90;;;;;;4953977;29;20038;-76
2021/12/20 06:18:59;;;;;;;32.58;28.80;;;3.20;99.90;;;;;;4936898;29;20039;-77
2021/12/20 06:21:25;;;;;;;29.83;26.58;;;3.30;99.90;;;;;;4953800;29;20042;-76
2021/12/20 06:23:52;;;;;;;30.15;26.73;;;3.30;99.90;;;;;;4937391;29;20050;-76
2021/12/20 06:26:18;;;;;;;28.80;25.02;;;3.30;99.90;;;;;;4934366;29;20043;-76
2021/12/20 06:28:44;;;;;;;29.75;26.63;;;3.30;99.90;;;;;;4935179;29;20401;-76
2021/12/20 06:31:10;;;;;;;36.63;27.23;;;3.30;99.90;;;;;;4937706;29;20048;-76
2021/12/20 06:33:36;;;;;;;33.40;27.88;;;3.30;99.90;;;;;;4935175;29;20043;-76
2021/12/20 06:36:03;;;;;;;32.35;28.70;;;3.20;99.90;;;;;;4935380;29;20066;-76
2021/12/20 06:38:29;;;;;;;31.77;27.20;;;3.20;99.90;;;;;;4934785;29;20040;-77
2021/12/20 06:40:55;;;;;;;32.47;26.75;;;3.30;99.90;;;;;;4934854;29;20027;-75
2021/12/20 06:43:22;;;;;;;32.40;26.52;;;3.30;99.90;;;;;;4940823;29;20031;-76
2021/12/20 06:45:48;;;;;;;29.35;26.08;;;3.30;99.90;;;;;;4938358;29;20044;-76
2021/12/20 06:48:14;;;;;;;29.45;25.70;;;3.30;99.90;;;;;;4950506;29;20032;-81
2021/12/20 06:50:40;;;;;;;33.63;29.00;;;3.30;99.90;;;;;;4935110;29;20040;-76
2021/12/20 06:53:07;;;;;;;26.25;23.52;;;3.20;99.90;;;;;;4935091;29;20034;-76
2021/12/20 06:55:35;;;;;;;30.13;24.85;;;3.20;99.90;;;;;;4942179;29;20116;-76
2021/12/20 06:58:03;;;;;;;36.63;25.92;;;3.20;99.90;;;;;;4935206;29;20042;-76
2021/12/20 07:00:29;;;;;;;31.75;27.00;;;3.20;99.90;;;;;;4934915;29;20516;-76
2021/12/20 07:02:55;;;;;;;29.45;26.27;;;3.20;99.90;;;;;;4928438;29;20039;-76
2021/12/20 07:05:23;;;;;;;30.60;27.25;;;3.20;99.90;;;;;;4938906;29;20027;-76
2021/12/20 07:07:49;;;;;;;31.90;26.17;;;3.10;99.90;;;;;;4934509;29;20035;-76
2021/12/20 07:10:16;;;;;;;30.58;27.38;;;3.10;99.90;;;;;;4934155;29;20028;-81
2021/12/20 07:12:42;;;;;;;29.33;25.48;;;3.10;99.90;;;;;;4934937;29;20039;-76
2021/12/20 07:15:11;;;;;;;36.90;28.80;;;3.00;99.90;;;;;;4934330;29;20035;-76
2021/12/20 07:17:38;;;;;;;42.42;29.75;;;3.00;99.90;;;;;;4916816;29;20050;-76
2021/12/20 07:20:05;;;;;;;35.53;31.85;;;3.00;99.90;;;;;;4934570;29;20046;-76
2021/12/20 07:22:32;;;;;;;31.67;27.45;;;3.00;99.90;;;;;;4946320;29;20465;-76
2021/12/20 07:24:58;;;;;;;40.50;25.80;;;3.00;99.90;;;;;;4943865;29;20051;-76
2021/12/20 07:27:24;;;;;;;32.17;26.52;;;3.00;99.90;;;;;;4931913;29;20052;-76
2021/12/20 07:29:50;;;;;;;28.20;25.35;;;3.00;99.90;;;;;;4935045;29;20035;-76
2021/12/20 07:32:17;;;;;;;33.00;27.13;;;3.00;99.90;;;;;;4933104;29;20500;-77
2021/12/20 07:34:43;;;;;;;33.38;27.00;;;2.90;99.90;;;;;;4936249;29;20032;-75
2021/12/20 07:37:09;;;;;;;30.52;27.23;;;2.90;99.90;;;;;;4938496;29;20039;-76
2021/12/20 07:39:36;;;;;;;29.55;25.08;;;2.90;99.90;;;;;;4938186;29;20039;-76
2021/12/20 07:42:03;;;;;;;32.53;24.38;;;2.90;99.90;;;;;;4938983;29;20054;-76
2021/12/20 07:44:30;;;;;;;29.00;24.38;;;2.90;99.90;;;;;;4927430;29;20043;-75
2021/12/20 07:46:56;;;;;;;33.75;26.13;;;2.90;99.90;;;;;;4945122;29;20044;-74
2021/12/20 07:49:23;;;;;;;30.85;25.80;;;2.90;99.90;;;;;;4936916;29;20051;-76
2021/12/20 07:51:51;;;;;;;30.92;25.17;;;2.90;99.90;;;;;;4937667;29;20468;-76
2021/12/20 07:54:18;;;;;;;29.23;25.65;;;2.80;99.90;;;;;;4937790;29;20035;-76
2021/12/20 07:56:44;;;;;;;30.77;25.63;;;2.80;99.90;;;;;;4937972;29;20048;-75
2021/12/20 07:59:11;;;;;;;28.20;24.58;;;2.80;99.90;;;;;;4937360;29;20055;-75
2021/12/20 08:01:37;;;;;;;29.45;25.52;;;2.80;99.90;;;;;;4937324;29;20044;-76
2021/12/20 08:04:04;;;;;;;34.00;25.67;;;2.80;99.90;;;;;;4937288;29;20039;-76
2021/12/20 08:06:30;;;;;;;32.47;25.90;;;2.80;99.90;;;;;;4953396;29;20497;-76
2021/12/20 08:08:56;;;;;;;32.55;25.00;;;2.80;99.90;;;;;;4919975;29;20051;-76
2021/12/20 08:11:23;;;;;;;33.10;23.88;;;2.70;99.90;;;;;;4937572;29;20043;-77
2021/12/20 08:13:49;;;;;;;28.77;23.17;;;2.70;99.90;;;;;;4938709;29;20504;-76
2021/12/20 08:16:16;;;;;;;28.52;24.13;;;2.60;99.90;;;;;;4937874;29;20051;-79
2021/12/20 08:18:44;;;;;;;28.60;25.65;;;2.60;99.90;;;;;;4937504;29;20046;-75
2021/12/20 08:21:11;;;;;;;35.47;25.92;;;2.50;99.90;;;;;;4940247;29;20040;-72
2021/12/20 08:23:38;;;;;;;31.73;25.10;;;2.50;99.90;;;;;;4920849;29;20040;-73
2021/12/20 08:26:05;;;;;;;30.63;25.48;;;2.50;99.90;;;;;;4937927;29;20390;-73
2021/12/20 08:28:32;;;;;;;33.83;24.88;;;2.50;99.90;;;;;;4938694;29;20039;-73
2021/12/20 08:30:58;;;;;;;28.92;26.13;;;2.50;99.90;;;;;;4938003;29;20043;-73
2021/12/20 08:33:24;;;;;;;31.27;27.27;;;2.50;99.90;;;;;;4936935;29;20028;-72
2021/12/20 08:35:51;;;;;;;36.38;25.65;;;2.60;99.90;;;;;;4937615;29;20054;-73
2021/12/20 08:38:19;;;;;;;34.47;27.80;;;2.60;99.90;;;;;;4937770;29;20034;-75
2021/12/20 08:40:47;;;;;;;34.05;27.20;;;2.70;99.90;;;;;;4937818;29;20032;-72
2021/12/20 08:43:14;;;;;;;33.40;27.13;;;2.60;99.90;;;;;;4942199;29;20042;-72
2021/12/20 08:45:41;;;;;;;37.03;28.13;;;2.60;99.90;;;;;;4937488;29;20054;-72
2021/12/20 08:48:08;;;;;;;30.55;27.35;;;2.60;99.90;;;;;;4945189;29;20039;-73
2021/12/20 08:50:34;;;;;;;30.75;27.52;;;2.50;99.90;;;;;;4946783;29;20047;-72
2021/12/20 08:53:00;;;;;;;37.67;29.00;;;2.50;99.90;;;;;;4943593;29;20051;-72
2021/12/20 08:55:26;;;;;;;41.10;30.05;;;2.50;99.90;;;;;;4936809;29;20039;-72
2021/12/20 08:57:53;;;;;;;36.78;28.83;;;2.50;99.90;;;;;;4936936;29;20043;-72
2021/12/20 09:00:23;;;;;;;32.47;28.98;;;2.50;99.90;;;;;;4936479;29;20039;-73
2021/12/20 09:02:50;;;;;;;36.20;29.58;;;2.50;99.90;;;;;;4936870;29;20406;-73
2021/12/20 09:05:18;;;;;;;33.70;28.42;;;2.50;99.90;;;;;;4936371;29;20377;-73
2021/12/20 09:07:44;;;;;;;35.78;28.90;;;2.40;99.90;;;;;;4936124;29;20046;-72
2021/12/20 09:10:12;;;;;;;40.13;33.72;;;2.50;99.90;;;;;;4936850;29;20397;-72
2021/12/20 09:12:40;;;;;;;38.70;31.83;;;2.60;99.90;;;;;;4935776;29;20032;-72
2021/12/20 09:15:08;;;;;;;34.95;31.30;;;2.70;99.90;;;;;;4936562;29;20031;-74
2021/12/20 09:17:34;;;;;;;43.92;32.92;;;2.70;99.90;;;;;;4935334;29;20043;-72
2021/12/20 09:20:01;;;;;;;41.80;34.15;;;2.80;99.90;;;;;;4936845;29;20468;-72
2021/12/20 09:22:29;;;;;;;38.40;33.40;;;2.90;99.90;;;;;;4936570;29;20047;-72
2021/12/20 09:24:56;;;;;;;37.67;33.20;;;3.00;99.90;;;;;;4936424;29;20031;-73
2021/12/20 09:27:22;;;;;;;37.83;32.50;;;3.20;99.90;;;;;;4935491;29;20052;-72
2021/12/20 09:29:48;;;;;;;37.45;33.10;;;3.30;99.90;;;;;;4935974;29;20028;-72
2021/12/20 09:32:16;;;;;;;47.22;32.88;;;3.40;99.90;;;;;;4936214;29;20122;-72
2021/12/20 09:34:43;;;;;;;36.60;31.65;;;3.50;99.90;;;;;;4919160;29;20051;-72
2021/12/20 09:37:09;;;;;;;33.80;29.27;;;3.70;99.90;;;;;;4936804;29;20384;-72
2021/12/20 09:39:39;;;;;;;29.98;26.25;;;3.80;99.90;;;;;;4935330;29;20228;-73
2021/12/20 09:42:06;;;;;;;32.25;24.27;;;4.00;99.90;;;;;;4936304;29;20044;-72
2021/12/20 09:44:36;;;;;;;30.15;20.98;;;4.10;99.90;;;;;;4941554;29;20054;-73
2021/12/20 09:47:03;;;;;;;27.20;17.92;;;4.30;99.90;;;;;;4945590;29;20063;-72
2021/12/20 09:49:31;;;;;;;23.85;18.08;;;4.40;99.90;;;;;;4935703;29;20056;-72
2021/12/20 09:51:58;;;;;;;23.83;17.45;;;4.50;99.90;;;;;;4936780;29;20060;-72
2021/12/20 09:54:26;;;;;;;21.70;15.77;;;4.60;99.90;;;;;;4950570;29;20039;-72
2021/12/20 09:56:54;;;;;;;21.10;14.43;;;4.70;99.90;;;;;;4947904;28;20050;-72
2021/12/20 09:59:22;;;;;;;19.35;14.98;;;4.80;99.90;;;;;;4939330;29;20062;-72
2021/12/20 10:01:49;;;;;;;24.50;13.88;;;4.90;99.90;;;;;;4936150;29;20035;-72
2021/12/20 10:04:16;;;;;;;15.05;12.30;;;4.90;99.90;;;;;;4936423;29;20031;-73
2021/12/20 10:06:42;;;;;;;15.05;12.43;;;5.00;99.90;;;;;;4935673;29;20040;-73
2021/12/20 10:09:15;;;;;;;16.70;10.48;;;5.10;99.90;;;;;;4936287;29;20032;-72
2021/12/20 10:11:43;;;;;;;18.80;9.52;;;5.20;99.70;;;;;;4940801;29;20031;-72
2021/12/20 10:14:11;;;;;;;11.02;7.75;;;5.30;98.90;;;;;;4954075;29;20308;-73
2021/12/20 10:16:41;;;;;;;22.52;8.85;;;5.40;97.90;;;;;;4953965;29;20066;-73
2021/12/20 10:19:28;;;;;;;11.07;8.73;;;5.40;96.80;;;;;;4936907;29;20051;-73
2021/12/20 10:21:57;;;;;;;17.08;9.40;;;5.50;96.50;;;;;;4946452;29;20031;-72
2021/12/20 10:24:36;;;;;;;17.50;8.38;;;5.50;96.30;;;;;;4952551;29;20061;-75
2021/12/20 10:27:03;;;;;;;10.32;7.43;;;5.60;95.70;;;;;;4953008;29;20428;-73
2021/12/20 10:29:30;;;;;;;24.45;8.30;;;5.60;95.00;;;;;;4944246;29;20039;-73
2021/12/20 10:31:56;;;;;;;10.32;6.68;;;5.60;93.90;;;;;;4942411;29;20040;-73
2021/12/20 10:34:31;;;;;;;12.13;6.63;;;5.60;93.70;;;;;;4944912;29;20035;-73
2021/12/20 10:36:59;;;;;;;10.07;6.72;;;5.60;93.40;;;;;;4953896;29;20082;-73
2021/12/20 10:39:37;;;;;;;10.38;7.25;;;5.70;92.90;;;;;;4943360;29;20031;-73
2021/12/20 10:42:28;;;;;;;10.75;6.90;;;5.70;92.80;;;;;;4949734;29;20039;-73
2021/12/20 10:45:14;;;;;;;;;;;5.80;92.30;;;;;;4936124;29;20036;-73
2021/12/20 10:47:44;;;;;;;7.07;5.07;;;5.90;91.00;;;;;;4934960;29;19925;-73
2021/12/20 10:50:32;;;;;;;8.53;6.13;;;6.00;90.80;;;;;;4917708;29;20048;-74
2021/12/20 10:53:22;;;;;;;7.80;5.00;;;6.10;90.50;;;;;;4935859;29;20056;-72
2021/12/20 10:55:54;;;;;;;14.13;4.68;;;6.20;90.20;;;;;;4943399;29;20039;-72
2021/12/20 10:58:20;;;;;;;;;;;6.30;87.90;;;;;;4937663;29;20393;-72
2021/12/20 11:01:05;;;;;;;6.13;3.80;;;6.20;87.10;;;;;;4943334;29;19915;-72
2021/12/20 11:03:40;;;;;;;13.18;4.50;;;6.20;86.30;;;;;;4940031;29;20035;-72
2021/12/20 11:11:24;;;;;;;6.05;3.50;;;6.20;83.70;;;;;;4939141;29;20039;-72
2021/12/20 11:13:50;;;;;;;5.28;3.40;;;6.40;82.60;;;;;;4939470;29;20031;-73
2021/12/20 11:16:32;;;;;;;9.60;3.35;;;6.50;83.30;;;;;;4938784;29;20040;-71
2021/12/20 11:19:08;;;;;;;13.63;3.28;;;6.50;82.10;;;;;;4947794;29;20039;-73
2021/12/20 11:21:35;;;;;;;6.20;2.60;;;6.50;81.20;;;;;;4941196;29;20043;-72
2021/12/20 11:24:02;;;;;;;7.38;2.92;;;6.40;81.50;;;;;;4942161;29;20040;-72
2021/12/20 11:26:29;;;;;;;10.60;3.15;;;6.50;80.70;;;;;;4953958;29;20055;-72
2021/12/20 11:28:56;;;;;;;9.38;3.45;;;6.50;81.30;;;;;;4951965;29;20042;-72
2021/12/20 11:31:23;;;;;;;8.18;3.70;;;6.60;79.80;;;;;;4948481;29;20034;-72
2021/12/20 11:33:49;;;;;;;4.03;2.35;;;6.70;79.80;;;;;;4947630;29;20032;-72
2021/12/20 11:36:18;;;;;;;17.27;3.72;;;6.70;79.10;;;;;;4941265;29;20035;-71
2021/12/20 11:38:44;;;;;;;10.07;2.90;;;6.70;78.70;;;;;;4950180;29;20035;-72
2021/12/20 11:41:11;;;;;;;11.57;3.05;;;6.80;78.20;;;;;;4921410;29;20035;-72
2021/12/20 11:43:38;;;;;;;7.93;3.40;;;6.80;78.20;;;;;;4937840;29;20034;-72
2021/12/20 11:46:07;;;;;;;7.43;2.53;;;6.70;77.50;;;;;;4937900;29;20024;-72
2021/12/20 11:48:37;;;;;;;8.05;2.95;;;6.80;77.50;;;;;;4942243;29;20507;-73
2021/12/20 11:51:03;;;;;;;13.20;2.92;;;6.60;76.70;;;;;;4946109;29;20039;-73
2021/12/20 11:53:40;;;;;;;7.18;2.95;;;6.70;77.20;;;;;;4939077;29;20067;-73
2021/12/20 11:56:06;;;;;;;9.18;2.17;;;6.70;76.50;;;;;;4938381;29;20032;-73
2021/12/20 11:58:34;;;;;;;5.55;2.83;;;6.60;76.70;;;;;;4938008;29;20042;-72
2021/12/20 12:01:16;;;;;;;14.18;2.90;;;6.70;76.90;;;;;;4938149;29;20131;-74
2021/12/20 12:03:53;;;;;;;8.35;3.72;;;6.70;75.80;;;;;;4938607;29;20036;-74
2021/12/20 12:06:30;;;;;;;8.48;2.65;;;6.80;75.00;;;;;;4939447;29;20396;-77
2021/12/20 12:09:01;;;;;;;11.10;3.15;;;6.90;74.10;;;;;;4955261;29;20412;-73
2021/12/20 12:11:32;;;;;;;9.52;4.40;;;6.70;74.20;;;;;;4946973;29;20043;-73
2021/12/20 12:14:01;;;;;;;8.95;2.63;;;6.90;74.80;;;;;;4956321;29;20031;-73
2021/12/20 12:17:02;;;;;;;12.70;2.65;;;6.90;73.60;;;;;;4945283;29;20042;-73
2021/12/20 12:19:48;;;;;;;6.85;2.65;;;6.90;73.30;;;;;;4945729;29;20031;-74
2021/12/20 12:22:26;;;;;;;9.43;2.72;;;6.90;73.50;;;;;;4936891;29;20371;-73
2021/12/20 12:24:55;;;;;;;10.27;5.28;;;7.00;73.20;;;;;;4937659;29;20040;-73
2021/12/20 12:27:24;;;;;;;21.02;14.85;;;6.90;73.10;;;;;;4937483;29;20058;-74
2021/12/20 12:30:12;;;;;;;9.15;2.85;;;6.90;73.10;;;;;;4938179;29;20043;-73
2021/12/20 12:32:44;;;;;;;6.57;2.67;;;7.00;71.80;;;;;;4937391;29;20028;-73
2021/12/20 12:35:47;;;;;;;6.00;2.67;;;7.10;71.20;;;;;;4952464;29;20477;-73
2021/12/20 12:38:48;;;;;;;6.28;2.53;;;7.00;70.90;;;;;;4950929;29;20039;-73
2021/12/20 12:41:21;;;;;;;4.88;2.22;;;7.00;70.90;;;;;;4936980;29;20047;-73
2021/12/20 12:44:08;;;;;;;11.68;2.45;;;7.00;71.00;;;;;;4937776;29;20381;-72
2021/12/20 12:46:43;;;;;;;8.95;2.20;;;7.00;71.10;;;;;;4937591;29;20028;-73
2021/12/20 12:49:22;;;;;;;4.35;1.95;;;7.00;71.30;;;;;;4938552;29;20373;-73
2021/12/20 12:51:53;;;;;;;5.65;2.13;;;7.10;71.70;;;;;;4951799;29;20489;-72
2021/12/20 12:54:40;;;;;;;9.48;2.83;;;7.00;71.70;;;;;;4937975;29;20039;-72
2021/12/20 12:57:09;;;;;;;5.88;2.53;;;7.00;71.20;;;;;;4938281;29;20042;-73
2021/12/20 12:59:48;;;;;;;5.38;1.75;;;6.90;71.50;;;;;;4936960;29;20378;-73
2021/12/20 13:02:19;;;;;;;4.75;1.75;;;6.90;71.50;;;;;;4949443;29;20042;-73